sensor_id;sensor_type;location;lat;lon;timestamp;P1;durP1;ratioP1;P2;durP2;ratioP2
23080;SDS011;72373;50.562;8.498;2023-08-31T00:01:31;12.55;;;8.77;;
23080;SDS011;72373;50.562;8.498;2023-08-31T00:03:57;14.13;;;8.77;;
23080;SDS011;72373;50.562;8.498;2023-08-31T00:06:24;13.13;;;8.55;;
23080;SDS011;72373;50.562;8.498;2023-08-31T00:08:50;12.27;;;7.78;;
23080;SDS011;72373;50.562;8.498;2023-08-31T00:11:15;14.65;;;8.52;;
23080;SDS011;72373;50.562;8.498;2023-08-31T00:13:41;13.50;;;8.95;;
23080;SDS011;72373;50.562;8.498;2023-08-31T00:16:07;14.35;;;8.77;;
23080;SDS011;72373;50.562;8.498;2023-08-31T00:18:34;12.57;;;8.40;;
23080;SDS011;72373;50.562;8.498;2023-08-31T00:21:01;17.30;;;8.40;;
23080;SDS011;72373;50.562;8.498;2023-08-31T00:23:28;11.18;;;8.00;;
23080;SDS011;72373;50.562;8.498;2023-08-31T00:25:53;14.30;;;8.27;;
23080;SDS011;72373;50.562;8.498;2023-08-31T00:28:20;12.00;;;9.05;;
23080;SDS011;72373;50.562;8.498;2023-08-31T00:30:46;11.40;;;8.35;;
23080;SDS011;72373;50.562;8.498;2023-08-31T00:33:13;11.73;;;7.72;;
23080;SDS011;72373;50.562;8.498;2023-08-31T00:35:40;12.52;;;8.45;;
23080;SDS011;72373;50.562;8.498;2023-08-31T00:38:10;10.77;;;7.90;;
23080;SDS011;72373;50.562;8.498;2023-08-31T00:40:40;11.75;;;8.18;;
23080;SDS011;72373;50.562;8.498;2023-08-31T00:43:07;11.95;;;8.85;;
23080;SDS011;72373;50.562;8.498;2023-08-31T00:45:33;14.85;;;8.52;;
23080;SDS011;72373;50.562;8.498;2023-08-31T00:47:59;14.27;;;8.88;;
23080;SDS011;72373;50.562;8.498;2023-08-31T00:50:25;11.98;;;8.60;;
23080;SDS011;72373;50.562;8.498;2023-08-31T00:52:51;14.25;;;8.50;;
23080;SDS011;72373;50.562;8.498;2023-08-31T00:55:17;10.90;;;7.65;;
23080;SDS011;72373;50.562;8.498;2023-08-31T00:57:42;13.73;;;8.30;;
23080;SDS011;72373;50.562;8.498;2023-08-31T01:00:08;14.13;;;8.40;;
23080;SDS011;72373;50.562;8.498;2023-08-31T01:10:58;11.70;;;9.20;;
23080;SDS011;72373;50.562;8.498;2023-08-31T01:13:37;13.68;;;8.25;;
23080;SDS011;72373;50.562;8.498;2023-08-31T01:16:09;10.40;;;7.35;;
23080;SDS011;72373;50.562;8.498;2023-08-31T01:18:35;12.13;;;8.23;;
23080;SDS011;72373;50.562;8.498;2023-08-31T01:21:10;9.07;;;7.30;;
23080;SDS011;72373;50.562;8.498;2023-08-31T01:23:52;11.68;;;7.88;;
23080;SDS011;72373;50.562;8.498;2023-08-31T01:26:18;11.15;;;8.10;;
23080;SDS011;72373;50.562;8.498;2023-08-31T01:28:45;10.98;;;8.00;;
23080;SDS011;72373;50.562;8.498;2023-08-31T01:31:12;13.02;;;8.27;;
23080;SDS011;72373;50.562;8.498;2023-08-31T01:33:38;12.00;;;7.55;;
23080;SDS011;72373;50.562;8.498;2023-08-31T01:36:05;10.52;;;7.90;;
23080;SDS011;72373;50.562;8.498;2023-08-31T01:38:37;14.27;;;8.05;;
23080;SDS011;72373;50.562;8.498;2023-08-31T01:41:09;15.30;;;9.07;;
23080;SDS011;72373;50.562;8.498;2023-08-31T01:43:38;16.13;;;8.30;;
23080;SDS011;72373;50.562;8.498;2023-08-31T01:46:06;16.90;;;8.95;;
23080;SDS011;72373;50.562;8.498;2023-08-31T01:48:37;13.15;;;8.13;;
23080;SDS011;72373;50.562;8.498;2023-08-31T01:51:05;11.73;;;7.60;;
23080;SDS011;72373;50.562;8.498;2023-08-31T01:53:32;12.18;;;7.65;;
23080;SDS011;72373;50.562;8.498;2023-08-31T01:55:57;13.68;;;7.88;;
23080;SDS011;72373;50.562;8.498;2023-08-31T01:58:23;11.80;;;7.45;;
23080;SDS011;72373;50.562;8.498;2023-08-31T02:00:48;12.45;;;8.07;;
23080;SDS011;72373;50.562;8.498;2023-08-31T02:03:14;13.27;;;8.20;;
23080;SDS011;72373;50.562;8.498;2023-08-31T02:05:39;15.25;;;7.75;;
23080;SDS011;72373;50.562;8.498;2023-08-31T02:08:05;13.35;;;7.93;;
23080;SDS011;72373;50.562;8.498;2023-08-31T02:10:30;11.85;;;7.70;;
23080;SDS011;72373;50.562;8.498;2023-08-31T02:12:56;11.82;;;8.18;;
23080;SDS011;72373;50.562;8.498;2023-08-31T02:15:22;13.30;;;7.78;;
23080;SDS011;72373;50.562;8.498;2023-08-31T02:17:47;12.02;;;8.57;;
23080;SDS011;72373;50.562;8.498;2023-08-31T02:20:13;18.70;;;8.27;;
23080;SDS011;72373;50.562;8.498;2023-08-31T02:22:39;12.40;;;8.02;;
23080;SDS011;72373;50.562;8.498;2023-08-31T02:25:05;12.85;;;8.05;;
23080;SDS011;72373;50.562;8.498;2023-08-31T02:27:31;11.18;;;7.70;;
23080;SDS011;72373;50.562;8.498;2023-08-31T02:29:56;12.55;;;8.25;;
23080;SDS011;72373;50.562;8.498;2023-08-31T02:32:22;11.40;;;7.53;;
23080;SDS011;72373;50.562;8.498;2023-08-31T02:34:48;11.32;;;7.68;;
23080;SDS011;72373;50.562;8.498;2023-08-31T02:37:14;12.40;;;7.30;;
23080;SDS011;72373;50.562;8.498;2023-08-31T02:39:39;14.95;;;8.25;;
23080;SDS011;72373;50.562;8.498;2023-08-31T02:42:05;13.52;;;7.47;;
23080;SDS011;72373;50.562;8.498;2023-08-31T02:44:31;9.65;;;7.22;;
23080;SDS011;72373;50.562;8.498;2023-08-31T02:46:57;11.07;;;7.63;;
23080;SDS011;72373;50.562;8.498;2023-08-31T02:49:22;11.52;;;6.72;;
23080;SDS011;72373;50.562;8.498;2023-08-31T02:51:48;12.05;;;7.30;;
23080;SDS011;72373;50.562;8.498;2023-08-31T02:54:14;10.00;;;6.85;;
23080;SDS011;72373;50.562;8.498;2023-08-31T02:56:40;10.10;;;7.22;;
23080;SDS011;72373;50.562;8.498;2023-08-31T02:59:06;9.45;;;6.80;;
23080;SDS011;72373;50.562;8.498;2023-08-31T03:01:31;13.07;;;7.45;;
23080;SDS011;72373;50.562;8.498;2023-08-31T03:03:57;11.70;;;7.05;;
23080;SDS011;72373;50.562;8.498;2023-08-31T03:06:22;9.65;;;6.70;;
23080;SDS011;72373;50.562;8.498;2023-08-31T03:08:48;10.07;;;6.95;;
23080;SDS011;72373;50.562;8.498;2023-08-31T03:11:14;9.27;;;7.13;;
23080;SDS011;72373;50.562;8.498;2023-08-31T03:13:39;12.13;;;7.00;;
23080;SDS011;72373;50.562;8.498;2023-08-31T03:16:06;14.88;;;7.03;;
23080;SDS011;72373;50.562;8.498;2023-08-31T03:18:32;9.43;;;7.50;;
23080;SDS011;72373;50.562;8.498;2023-08-31T03:20:58;13.23;;;8.02;;
23080;SDS011;72373;50.562;8.498;2023-08-31T03:23:24;12.80;;;7.57;;
23080;SDS011;72373;50.562;8.498;2023-08-31T03:25:50;14.20;;;8.40;;
23080;SDS011;72373;50.562;8.498;2023-08-31T03:28:15;15.30;;;8.13;;
23080;SDS011;72373;50.562;8.498;2023-08-31T03:30:41;13.63;;;7.90;;
23080;SDS011;72373;50.562;8.498;2023-08-31T03:33:07;11.43;;;8.02;;
23080;SDS011;72373;50.562;8.498;2023-08-31T03:35:32;16.63;;;8.32;;
23080;SDS011;72373;50.562;8.498;2023-08-31T03:37:58;11.57;;;7.65;;
23080;SDS011;72373;50.562;8.498;2023-08-31T03:40:24;13.63;;;9.15;;
23080;SDS011;72373;50.562;8.498;2023-08-31T03:42:50;14.63;;;9.00;;
23080;SDS011;72373;50.562;8.498;2023-08-31T03:45:15;14.77;;;8.48;;
23080;SDS011;72373;50.562;8.498;2023-08-31T03:47:41;14.75;;;8.50;;
23080;SDS011;72373;50.562;8.498;2023-08-31T03:50:07;17.23;;;9.25;;
23080;SDS011;72373;50.562;8.498;2023-08-31T03:52:33;13.65;;;8.82;;
23080;SDS011;72373;50.562;8.498;2023-08-31T03:54:59;13.02;;;8.32;;
23080;SDS011;72373;50.562;8.498;2023-08-31T03:57:24;11.48;;;7.72;;
23080;SDS011;72373;50.562;8.498;2023-08-31T03:59:50;11.70;;;7.70;;
23080;SDS011;72373;50.562;8.498;2023-08-31T04:02:15;15.77;;;8.40;;
23080;SDS011;72373;50.562;8.498;2023-08-31T04:04:41;10.10;;;6.97;;
23080;SDS011;72373;50.562;8.498;2023-08-31T04:07:06;13.30;;;7.60;;
23080;SDS011;72373;50.562;8.498;2023-08-31T04:09:32;13.30;;;8.13;;
23080;SDS011;72373;50.562;8.498;2023-08-31T04:11:58;13.20;;;8.73;;
23080;SDS011;72373;50.562;8.498;2023-08-31T04:14:25;14.43;;;8.43;;
23080;SDS011;72373;50.562;8.498;2023-08-31T04:16:51;14.18;;;9.23;;
23080;SDS011;72373;50.562;8.498;2023-08-31T04:19:17;15.45;;;10.07;;
23080;SDS011;72373;50.562;8.498;2023-08-31T04:21:43;13.75;;;9.38;;
23080;SDS011;72373;50.562;8.498;2023-08-31T04:24:08;13.07;;;8.93;;
23080;SDS011;72373;50.562;8.498;2023-08-31T04:26:35;11.93;;;8.43;;
23080;SDS011;72373;50.562;8.498;2023-08-31T04:29:01;11.35;;;8.68;;
23080;SDS011;72373;50.562;8.498;2023-08-31T04:31:28;14.43;;;8.27;;
23080;SDS011;72373;50.562;8.498;2023-08-31T04:33:53;11.70;;;8.52;;
23080;SDS011;72373;50.562;8.498;2023-08-31T04:36:20;14.40;;;8.95;;
23080;SDS011;72373;50.562;8.498;2023-08-31T04:38:46;13.10;;;8.82;;
23080;SDS011;72373;50.562;8.498;2023-08-31T04:41:12;12.85;;;8.38;;
23080;SDS011;72373;50.562;8.498;2023-08-31T04:43:37;11.52;;;7.93;;
23080;SDS011;72373;50.562;8.498;2023-08-31T04:46:03;14.77;;;8.93;;
23080;SDS011;72373;50.562;8.498;2023-08-31T04:48:29;14.35;;;8.30;;
23080;SDS011;72373;50.562;8.498;2023-08-31T04:50:57;19.42;;;8.20;;
23080;SDS011;72373;50.562;8.498;2023-08-31T04:53:23;14.32;;;8.35;;
23080;SDS011;72373;50.562;8.498;2023-08-31T04:55:49;14.75;;;9.23;;
23080;SDS011;72373;50.562;8.498;2023-08-31T04:58:14;16.80;;;8.85;;
23080;SDS011;72373;50.562;8.498;2023-08-31T05:00:40;19.52;;;9.38;;
23080;SDS011;72373;50.562;8.498;2023-08-31T05:03:05;14.88;;;9.65;;
23080;SDS011;72373;50.562;8.498;2023-08-31T05:05:31;13.85;;;9.35;;
23080;SDS011;72373;50.562;8.498;2023-08-31T05:07:56;19.23;;;9.68;;
23080;SDS011;72373;50.562;8.498;2023-08-31T05:10:23;15.82;;;10.20;;
23080;SDS011;72373;50.562;8.498;2023-08-31T05:12:49;17.60;;;10.45;;
23080;SDS011;72373;50.562;8.498;2023-08-31T05:15:15;17.10;;;10.13;;
23080;SDS011;72373;50.562;8.498;2023-08-31T05:17:41;15.15;;;8.95;;
23080;SDS011;72373;50.562;8.498;2023-08-31T05:20:06;13.38;;;9.25;;
23080;SDS011;72373;50.562;8.498;2023-08-31T05:22:34;16.65;;;10.07;;
23080;SDS011;72373;50.562;8.498;2023-08-31T05:25:00;14.45;;;9.20;;
23080;SDS011;72373;50.562;8.498;2023-08-31T05:27:26;15.27;;;10.15;;
23080;SDS011;72373;50.562;8.498;2023-08-31T05:29:51;16.10;;;10.27;;
23080;SDS011;72373;50.562;8.498;2023-08-31T05:32:17;15.10;;;9.90;;
23080;SDS011;72373;50.562;8.498;2023-08-31T05:34:42;17.40;;;9.48;;
23080;SDS011;72373;50.562;8.498;2023-08-31T05:37:08;15.63;;;9.65;;
23080;SDS011;72373;50.562;8.498;2023-08-31T05:39:34;14.77;;;9.25;;
23080;SDS011;72373;50.562;8.498;2023-08-31T05:41:59;16.83;;;8.82;;
23080;SDS011;72373;50.562;8.498;2023-08-31T05:44:26;11.77;;;8.20;;
23080;SDS011;72373;50.562;8.498;2023-08-31T05:46:51;10.43;;;7.22;;
23080;SDS011;72373;50.562;8.498;2023-08-31T05:49:17;10.43;;;7.43;;
23080;SDS011;72373;50.562;8.498;2023-08-31T05:51:42;10.18;;;7.20;;
23080;SDS011;72373;50.562;8.498;2023-08-31T05:54:08;9.50;;;6.85;;
23080;SDS011;72373;50.562;8.498;2023-08-31T05:56:36;10.55;;;7.07;;
23080;SDS011;72373;50.562;8.498;2023-08-31T05:59:05;12.32;;;6.97;;
23080;SDS011;72373;50.562;8.498;2023-08-31T06:01:32;9.30;;;7.57;;
23080;SDS011;72373;50.562;8.498;2023-08-31T06:03:57;9.65;;;6.57;;
23080;SDS011;72373;50.562;8.498;2023-08-31T06:06:23;11.55;;;6.85;;
23080;SDS011;72373;50.562;8.498;2023-08-31T06:08:49;8.52;;;6.68;;
23080;SDS011;72373;50.562;8.498;2023-08-31T06:11:14;10.43;;;7.50;;
23080;SDS011;72373;50.562;8.498;2023-08-31T06:13:40;10.57;;;6.32;;
23080;SDS011;72373;50.562;8.498;2023-08-31T06:16:07;7.88;;;6.03;;
23080;SDS011;72373;50.562;8.498;2023-08-31T06:18:33;10.95;;;5.97;;
23080;SDS011;72373;50.562;8.498;2023-08-31T06:20:58;9.73;;;6.45;;
23080;SDS011;72373;50.562;8.498;2023-08-31T06:23:24;9.93;;;6.20;;
23080;SDS011;72373;50.562;8.498;2023-08-31T06:25:50;8.85;;;7.03;;
23080;SDS011;72373;50.562;8.498;2023-08-31T06:28:15;8.93;;;5.97;;
23080;SDS011;72373;50.562;8.498;2023-08-31T06:30:41;7.97;;;6.10;;
23080;SDS011;72373;50.562;8.498;2023-08-31T06:33:12;10.07;;;6.13;;
23080;SDS011;72373;50.562;8.498;2023-08-31T06:35:38;8.60;;;6.00;;
23080;SDS011;72373;50.562;8.498;2023-08-31T06:38:04;8.45;;;5.93;;
23080;SDS011;72373;50.562;8.498;2023-08-31T06:40:29;6.55;;;5.20;;
23080;SDS011;72373;50.562;8.498;2023-08-31T06:42:55;8.60;;;5.18;;
23080;SDS011;72373;50.562;8.498;2023-08-31T06:45:20;7.50;;;5.47;;
23080;SDS011;72373;50.562;8.498;2023-08-31T06:47:46;7.75;;;5.60;;
23080;SDS011;72373;50.562;8.498;2023-08-31T06:50:11;8.52;;;4.68;;
23080;SDS011;72373;50.562;8.498;2023-08-31T06:52:37;6.28;;;4.32;;
23080;SDS011;72373;50.562;8.498;2023-08-31T06:55:03;6.50;;;4.07;;
23080;SDS011;72373;50.562;8.498;2023-08-31T06:57:28;6.43;;;4.50;;
23080;SDS011;72373;50.562;8.498;2023-08-31T06:59:54;7.13;;;4.15;;
23080;SDS011;72373;50.562;8.498;2023-08-31T07:02:19;8.00;;;4.20;;
23080;SDS011;72373;50.562;8.498;2023-08-31T07:04:47;12.07;;;4.43;;
23080;SDS011;72373;50.562;8.498;2023-08-31T07:07:13;6.70;;;4.05;;
23080;SDS011;72373;50.562;8.498;2023-08-31T07:09:41;6.30;;;3.88;;
23080;SDS011;72373;50.562;8.498;2023-08-31T07:12:07;4.93;;;3.58;;
23080;SDS011;72373;50.562;8.498;2023-08-31T07:14:33;8.40;;;4.07;;
23080;SDS011;72373;50.562;8.498;2023-08-31T07:16:59;7.95;;;4.13;;
23080;SDS011;72373;50.562;8.498;2023-08-31T07:19:24;7.13;;;4.53;;
23080;SDS011;72373;50.562;8.498;2023-08-31T07:21:50;5.15;;;3.83;;
23080;SDS011;72373;50.562;8.498;2023-08-31T07:24:15;6.97;;;3.33;;
23080;SDS011;72373;50.562;8.498;2023-08-31T07:26:41;6.65;;;3.92;;
23080;SDS011;72373;50.562;8.498;2023-08-31T07:29:06;6.68;;;4.05;;
23080;SDS011;72373;50.562;8.498;2023-08-31T07:31:32;5.30;;;3.25;;
23080;SDS011;72373;50.562;8.498;2023-08-31T07:33:57;5.55;;;3.35;;
23080;SDS011;72373;50.562;8.498;2023-08-31T07:36:24;3.75;;;3.20;;
23080;SDS011;72373;50.562;8.498;2023-08-31T07:38:50;4.00;;;2.92;;
23080;SDS011;72373;50.562;8.498;2023-08-31T07:41:15;5.63;;;3.45;;
23080;SDS011;72373;50.562;8.498;2023-08-31T07:43:41;5.53;;;3.13;;
23080;SDS011;72373;50.562;8.498;2023-08-31T07:46:06;6.82;;;3.03;;
23080;SDS011;72373;50.562;8.498;2023-08-31T07:48:32;5.05;;;2.90;;
23080;SDS011;72373;50.562;8.498;2023-08-31T07:50:57;5.28;;;2.70;;
23080;SDS011;72373;50.562;8.498;2023-08-31T07:53:23;6.40;;;3.85;;
23080;SDS011;72373;50.562;8.498;2023-08-31T07:55:57;4.50;;;3.10;;
23080;SDS011;72373;50.562;8.498;2023-08-31T07:58:23;3.15;;;2.70;;
23080;SDS011;72373;50.562;8.498;2023-08-31T08:00:51;6.05;;;3.03;;
23080;SDS011;72373;50.562;8.498;2023-08-31T08:03:18;5.10;;;2.90;;
23080;SDS011;72373;50.562;8.498;2023-08-31T08:05:44;6.63;;;3.38;;
23080;SDS011;72373;50.562;8.498;2023-08-31T08:08:09;4.43;;;2.88;;
23080;SDS011;72373;50.562;8.498;2023-08-31T08:10:35;6.43;;;2.90;;
23080;SDS011;72373;50.562;8.498;2023-08-31T08:13:01;4.47;;;3.05;;
23080;SDS011;72373;50.562;8.498;2023-08-31T08:15:26;4.78;;;2.55;;
23080;SDS011;72373;50.562;8.498;2023-08-31T08:17:52;5.53;;;2.90;;
23080;SDS011;72373;50.562;8.498;2023-08-31T08:20:18;6.05;;;2.90;;
23080;SDS011;72373;50.562;8.498;2023-08-31T08:22:44;4.65;;;2.40;;
23080;SDS011;72373;50.562;8.498;2023-08-31T08:25:10;3.97;;;2.65;;
23080;SDS011;72373;50.562;8.498;2023-08-31T08:27:35;7.15;;;2.80;;
23080;SDS011;72373;50.562;8.498;2023-08-31T08:30:01;6.20;;;2.90;;
23080;SDS011;72373;50.562;8.498;2023-08-31T08:32:28;4.68;;;2.78;;
23080;SDS011;72373;50.562;8.498;2023-08-31T08:34:53;5.03;;;2.63;;
23080;SDS011;72373;50.562;8.498;2023-08-31T08:37:19;4.43;;;2.88;;
23080;SDS011;72373;50.562;8.498;2023-08-31T08:39:48;3.33;;;2.30;;
23080;SDS011;72373;50.562;8.498;2023-08-31T08:42:17;2.70;;;2.25;;
23080;SDS011;72373;50.562;8.498;2023-08-31T08:44:44;4.80;;;2.63;;
23080;SDS011;72373;50.562;8.498;2023-08-31T08:47:11;4.88;;;2.28;;
23080;SDS011;72373;50.562;8.498;2023-08-31T08:49:37;8.27;;;2.53;;
23080;SDS011;72373;50.562;8.498;2023-08-31T08:52:03;3.65;;;2.38;;
23080;SDS011;72373;50.562;8.498;2023-08-31T08:54:29;5.00;;;2.70;;
23080;SDS011;72373;50.562;8.498;2023-08-31T08:56:55;6.07;;;2.50;;
23080;SDS011;72373;50.562;8.498;2023-08-31T08:59:21;4.05;;;2.35;;
23080;SDS011;72373;50.562;8.498;2023-08-31T09:01:47;4.82;;;2.42;;
23080;SDS011;72373;50.562;8.498;2023-08-31T09:04:13;3.15;;;2.30;;
23080;SDS011;72373;50.562;8.498;2023-08-31T09:06:39;3.03;;;2.05;;
23080;SDS011;72373;50.562;8.498;2023-08-31T09:09:06;6.95;;;3.20;;
23080;SDS011;72373;50.562;8.498;2023-08-31T09:11:33;4.13;;;2.22;;
23080;SDS011;72373;50.562;8.498;2023-08-31T09:14:13;4.05;;;2.10;;
23080;SDS011;72373;50.562;8.498;2023-08-31T09:16:46;2.83;;;2.30;;
23080;SDS011;72373;50.562;8.498;2023-08-31T09:19:20;4.78;;;2.20;;
23080;SDS011;72373;50.562;8.498;2023-08-31T09:21:49;5.22;;;2.20;;
23080;SDS011;72373;50.562;8.498;2023-08-31T09:24:16;4.50;;;2.20;;
23080;SDS011;72373;50.562;8.498;2023-08-31T09:26:44;4.95;;;2.15;;
23080;SDS011;72373;50.562;8.498;2023-08-31T09:29:11;5.68;;;2.40;;
23080;SDS011;72373;50.562;8.498;2023-08-31T09:31:37;5.18;;;2.28;;
23080;SDS011;72373;50.562;8.498;2023-08-31T09:34:02;3.63;;;2.10;;
23080;SDS011;72373;50.562;8.498;2023-08-31T09:36:28;5.18;;;2.28;;
23080;SDS011;72373;50.562;8.498;2023-08-31T09:38:56;3.88;;;2.22;;
23080;SDS011;72373;50.562;8.498;2023-08-31T09:41:23;5.35;;;2.65;;
23080;SDS011;72373;50.562;8.498;2023-08-31T09:43:49;3.08;;;2.40;;
23080;SDS011;72373;50.562;8.498;2023-08-31T09:46:14;6.53;;;3.03;;
23080;SDS011;72373;50.562;8.498;2023-08-31T09:48:41;3.70;;;2.00;;
23080;SDS011;72373;50.562;8.498;2023-08-31T09:51:07;4.75;;;2.20;;
23080;SDS011;72373;50.562;8.498;2023-08-31T09:53:35;4.28;;;1.98;;
23080;SDS011;72373;50.562;8.498;2023-08-31T09:56:02;3.13;;;1.98;;
23080;SDS011;72373;50.562;8.498;2023-08-31T09:58:30;3.40;;;2.20;;
23080;SDS011;72373;50.562;8.498;2023-08-31T10:00:56;8.75;;;3.08;;
23080;SDS011;72373;50.562;8.498;2023-08-31T10:03:22;2.17;;;1.80;;
23080;SDS011;72373;50.562;8.498;2023-08-31T10:05:48;3.17;;;1.90;;
23080;SDS011;72373;50.562;8.498;2023-08-31T10:08:15;3.22;;;2.05;;
23080;SDS011;72373;50.562;8.498;2023-08-31T10:10:40;5.32;;;2.05;;
23080;SDS011;72373;50.562;8.498;2023-08-31T10:13:06;6.25;;;1.83;;
23080;SDS011;72373;50.562;8.498;2023-08-31T10:15:33;4.88;;;2.00;;
23080;SDS011;72373;50.562;8.498;2023-08-31T10:18:02;3.30;;;1.80;;
23080;SDS011;72373;50.562;8.498;2023-08-31T10:20:29;2.58;;;2.00;;
23080;SDS011;72373;50.562;8.498;2023-08-31T10:23:02;4.03;;;1.55;;
23080;SDS011;72373;50.562;8.498;2023-08-31T10:28:23;2.35;;;1.70;;
23080;SDS011;72373;50.562;8.498;2023-08-31T10:31:15;2.72;;;1.73;;
23080;SDS011;72373;50.562;8.498;2023-08-31T10:33:42;2.78;;;1.52;;
23080;SDS011;72373;50.562;8.498;2023-08-31T10:38:38;3.03;;;1.70;;
23080;SDS011;72373;50.562;8.498;2023-08-31T10:46:25;3.58;;;1.90;;
23080;SDS011;72373;50.562;8.498;2023-08-31T10:48:53;3.08;;;1.52;;
23080;SDS011;72373;50.562;8.498;2023-08-31T10:51:23;3.38;;;1.55;;
23080;SDS011;72373;50.562;8.498;2023-08-31T10:53:50;2.90;;;1.80;;
23080;SDS011;72373;50.562;8.498;2023-08-31T10:56:16;1.77;;;1.40;;
23080;SDS011;72373;50.562;8.498;2023-08-31T10:58:42;2.10;;;1.50;;
23080;SDS011;72373;50.562;8.498;2023-08-31T11:01:09;3.47;;;1.70;;
23080;SDS011;72373;50.562;8.498;2023-08-31T11:03:56;2.20;;;1.40;;
23080;SDS011;72373;50.562;8.498;2023-08-31T11:06:23;5.00;;;1.67;;
23080;SDS011;72373;50.562;8.498;2023-08-31T11:08:53;2.80;;;1.40;;
23080;SDS011;72373;50.562;8.498;2023-08-31T11:11:19;1.42;;;1.30;;
23080;SDS011;72373;50.562;8.498;2023-08-31T11:13:45;3.72;;;1.50;;
23080;SDS011;72373;50.562;8.498;2023-08-31T11:16:10;5.15;;;1.50;;
23080;SDS011;72373;50.562;8.498;2023-08-31T11:18:36;3.92;;;1.70;;
23080;SDS011;72373;50.562;8.498;2023-08-31T11:21:02;2.15;;;1.10;;
23080;SDS011;72373;50.562;8.498;2023-08-31T11:23:30;2.08;;;1.60;;
23080;SDS011;72373;50.562;8.498;2023-08-31T11:25:56;3.70;;;1.20;;
23080;SDS011;72373;50.562;8.498;2023-08-31T11:28:21;6.30;;;1.90;;
23080;SDS011;72373;50.562;8.498;2023-08-31T11:30:48;3.60;;;1.40;;
23080;SDS011;72373;50.562;8.498;2023-08-31T11:33:13;4.05;;;1.55;;
23080;SDS011;72373;50.562;8.498;2023-08-31T11:35:40;2.20;;;1.50;;
23080;SDS011;72373;50.562;8.498;2023-08-31T11:38:08;3.15;;;1.70;;
23080;SDS011;72373;50.562;8.498;2023-08-31T11:40:35;4.90;;;1.70;;
23080;SDS011;72373;50.562;8.498;2023-08-31T11:43:01;3.08;;;1.30;;
23080;SDS011;72373;50.562;8.498;2023-08-31T11:45:29;4.28;;;1.60;;
23080;SDS011;72373;50.562;8.498;2023-08-31T11:47:55;4.20;;;1.50;;
23080;SDS011;72373;50.562;8.498;2023-08-31T11:50:21;2.88;;;1.35;;
23080;SDS011;72373;50.562;8.498;2023-08-31T11:52:48;2.60;;;1.40;;
23080;SDS011;72373;50.562;8.498;2023-08-31T11:55:16;1.65;;;1.55;;
23080;SDS011;72373;50.562;8.498;2023-08-31T11:57:49;2.47;;;1.45;;
23080;SDS011;72373;50.562;8.498;2023-08-31T12:00:16;2.45;;;1.27;;
23080;SDS011;72373;50.562;8.498;2023-08-31T12:02:42;2.70;;;1.25;;
23080;SDS011;72373;50.562;8.498;2023-08-31T12:05:11;2.22;;;1.67;;
23080;SDS011;72373;50.562;8.498;2023-08-31T12:07:39;2.67;;;1.50;;
23080;SDS011;72373;50.562;8.498;2023-08-31T12:10:06;3.92;;;1.30;;
23080;SDS011;72373;50.562;8.498;2023-08-31T12:12:32;3.55;;;1.33;;
23080;SDS011;72373;50.562;8.498;2023-08-31T12:15:00;3.13;;;1.65;;
23080;SDS011;72373;50.562;8.498;2023-08-31T12:17:28;3.90;;;1.25;;
23080;SDS011;72373;50.562;8.498;2023-08-31T12:20:04;3.30;;;1.48;;
23080;SDS011;72373;50.562;8.498;2023-08-31T12:22:31;2.85;;;1.48;;
23080;SDS011;72373;50.562;8.498;2023-08-31T12:24:56;2.22;;;1.30;;
23080;SDS011;72373;50.562;8.498;2023-08-31T12:27:22;2.35;;;1.23;;
23080;SDS011;72373;50.562;8.498;2023-08-31T12:29:47;2.15;;;1.70;;
23080;SDS011;72373;50.562;8.498;2023-08-31T12:32:14;1.77;;;1.30;;
23080;SDS011;72373;50.562;8.498;2023-08-31T12:34:40;2.65;;;1.52;;
23080;SDS011;72373;50.562;8.498;2023-08-31T12:37:05;1.77;;;1.42;;
23080;SDS011;72373;50.562;8.498;2023-08-31T12:39:32;1.65;;;1.25;;
23080;SDS011;72373;50.562;8.498;2023-08-31T12:41:57;3.13;;;1.67;;
23080;SDS011;72373;50.562;8.498;2023-08-31T12:44:24;4.43;;;1.70;;
23080;SDS011;72373;50.562;8.498;2023-08-31T12:46:50;3.20;;;1.60;;
23080;SDS011;72373;50.562;8.498;2023-08-31T12:49:16;3.42;;;1.60;;
23080;SDS011;72373;50.562;8.498;2023-08-31T12:51:42;3.33;;;1.77;;
23080;SDS011;72373;50.562;8.498;2023-08-31T12:54:08;4.80;;;1.70;;
23080;SDS011;72373;50.562;8.498;2023-08-31T12:56:34;4.70;;;1.92;;
23080;SDS011;72373;50.562;8.498;2023-08-31T12:58:59;5.68;;;1.90;;
23080;SDS011;72373;50.562;8.498;2023-08-31T13:01:25;4.72;;;1.95;;
23080;SDS011;72373;50.562;8.498;2023-08-31T13:03:51;3.08;;;1.95;;
23080;SDS011;72373;50.562;8.498;2023-08-31T13:06:17;13.20;;;3.17;;
23080;SDS011;72373;50.562;8.498;2023-08-31T13:08:43;10.23;;;3.58;;
23080;SDS011;72373;50.562;8.498;2023-08-31T13:11:10;6.28;;;2.70;;
23080;SDS011;72373;50.562;8.498;2023-08-31T13:13:37;5.82;;;4.10;;
23080;SDS011;72373;50.562;8.498;2023-08-31T13:16:03;8.80;;;3.75;;
23080;SDS011;72373;50.562;8.498;2023-08-31T13:18:29;11.35;;;3.92;;
23080;SDS011;72373;50.562;8.498;2023-08-31T13:20:55;6.05;;;3.85;;
23080;SDS011;72373;50.562;8.498;2023-08-31T13:23:21;8.30;;;3.50;;
23080;SDS011;72373;50.562;8.498;2023-08-31T13:25:47;6.72;;;3.55;;
23080;SDS011;72373;50.562;8.498;2023-08-31T13:28:13;5.03;;;3.05;;
23080;SDS011;72373;50.562;8.498;2023-08-31T13:30:39;4.25;;;3.00;;
23080;SDS011;72373;50.562;8.498;2023-08-31T13:33:06;4.15;;;2.72;;
23080;SDS011;72373;50.562;8.498;2023-08-31T13:35:32;5.32;;;3.25;;
23080;SDS011;72373;50.562;8.498;2023-08-31T13:37:58;8.10;;;2.78;;
23080;SDS011;72373;50.562;8.498;2023-08-31T13:40:23;7.47;;;2.88;;
23080;SDS011;72373;50.562;8.498;2023-08-31T13:42:58;6.78;;;2.70;;
23080;SDS011;72373;50.562;8.498;2023-08-31T13:45:31;3.08;;;2.20;;
23080;SDS011;72373;50.562;8.498;2023-08-31T13:47:57;5.35;;;2.80;;
23080;SDS011;72373;50.562;8.498;2023-08-31T13:50:25;3.47;;;2.10;;
23080;SDS011;72373;50.562;8.498;2023-08-31T13:52:51;3.75;;;2.03;;
23080;SDS011;72373;50.562;8.498;2023-08-31T13:55:16;3.40;;;2.13;;
23080;SDS011;72373;50.562;8.498;2023-08-31T13:57:42;8.05;;;2.75;;
23080;SDS011;72373;50.562;8.498;2023-08-31T14:00:08;3.67;;;2.67;;
23080;SDS011;72373;50.562;8.498;2023-08-31T14:02:35;3.40;;;1.77;;
23080;SDS011;72373;50.562;8.498;2023-08-31T14:05:04;7.65;;;2.78;;
23080;SDS011;72373;50.562;8.498;2023-08-31T14:07:34;3.03;;;2.08;;
23080;SDS011;72373;50.562;8.498;2023-08-31T14:10:00;6.78;;;2.30;;
23080;SDS011;72373;50.562;8.498;2023-08-31T14:12:25;5.55;;;2.25;;
23080;SDS011;72373;50.562;8.498;2023-08-31T14:14:51;3.75;;;2.10;;
23080;SDS011;72373;50.562;8.498;2023-08-31T14:17:17;3.42;;;2.00;;
23080;SDS011;72373;50.562;8.498;2023-08-31T14:19:43;4.70;;;1.88;;
23080;SDS011;72373;50.562;8.498;2023-08-31T14:22:09;1.70;;;1.60;;
23080;SDS011;72373;50.562;8.498;2023-08-31T14:24:35;2.60;;;1.50;;
23080;SDS011;72373;50.562;8.498;2023-08-31T14:27:01;2.70;;;1.70;;
23080;SDS011;72373;50.562;8.498;2023-08-31T14:29:28;3.75;;;1.80;;
23080;SDS011;72373;50.562;8.498;2023-08-31T14:31:53;4.25;;;2.42;;
23080;SDS011;72373;50.562;8.498;2023-08-31T14:34:20;5.90;;;1.75;;
23080;SDS011;72373;50.562;8.498;2023-08-31T14:36:46;3.80;;;1.83;;
23080;SDS011;72373;50.562;8.498;2023-08-31T14:39:11;2.38;;;1.50;;
23080;SDS011;72373;50.562;8.498;2023-08-31T14:41:37;3.15;;;1.60;;
23080;SDS011;72373;50.562;8.498;2023-08-31T14:44:02;4.00;;;2.00;;
23080;SDS011;72373;50.562;8.498;2023-08-31T14:46:28;4.18;;;2.00;;
23080;SDS011;72373;50.562;8.498;2023-08-31T14:48:54;2.42;;;1.70;;
23080;SDS011;72373;50.562;8.498;2023-08-31T14:51:19;2.95;;;1.60;;
23080;SDS011;72373;50.562;8.498;2023-08-31T14:53:45;2.25;;;1.52;;
23080;SDS011;72373;50.562;8.498;2023-08-31T14:56:10;3.92;;;1.92;;
23080;SDS011;72373;50.562;8.498;2023-08-31T14:58:36;3.15;;;1.73;;